Anchorage, AK (99507)

1:51 PM AKDT on August 29, 2015 (GMT -0800)
APRSWXNET | | Change Station
CLOSE
Current Station
Personal Weather Station
Location: Anchorage, AK
Elevation: 141 ft
Nearby Weather Stations

Elev 141 ft 61.18 °N, 149.85 °W | Updated 25 minutes ago

Overcast
Overcast
50 °F
Feels Like 50 °F
N
0
Wind Variable Wind from NE
Gusts 0.0 mph

Today
High -- | Low -- °F
--% Chance of Precip.
Yesterday
High -- | Low -- °F
Precip. -- in
6:43 AM 9:15 PM
Full, 100% visible
Pressure 29.37 in
Visibility 10.0 miles
Clouds Overcast 10000 ft
Dew Point 31 °F
Humidity 48%
Rainfall in
Snow Depth Not available.
UV 1 out of 12
Pollen Not available.
Air Quality Not available.
Flu Activity Not available.
METAR PAMR 292053Z 00000KT 10SM OVC100 10/M01 A2937 RMK AO2 SLP946 T01001006 58015
Pressure 29.37 in
Visibility 10.0 miles
Clouds Overcast 10000 ft
Dew Point 31 °F
Humidity 48%
Rainfall in
Snow Depth Not available.
UV 1 out of 12
Pollen Not available.
Air Quality Not available.
Flu Activity Not available.
METAR PAMR 292053Z 00000KT 10SM OVC100 10/M01 A2937 RMK AO2 SLP946 T01001006 58015

10-Day Weather Forecast

×

Almanac

Astronomy

Aug. 29, 2015 Rise Set
Actual Time
Civil Twilight
Nautical Twilight
Astronomical Twilight
Moon
Length of Visible Light
Length of Day
Tomorrow will be .
, % of the Moon is Illuminated

Today's Extremes

State Highs State Lows

Community

WunderPhotos

Upload Photos

1,850,795 photos uploaded!

WunderBlogs® & News

Nearby

Air Quality

  Air Quality AQ Index Pollutant
Not available.

Snow Depth

Station Depth Elevation

Earthquake Activity

City Distance Mag. Time & Date
Minimum magnitude displayed is 2.5.

Coastal Water Temperatures

Place Temperature

Stations

Nearby Weather Stations

Station Location Temp. Windchill Dew Point Humidity Wind Precip. Elev Updated Type